Time;durP1;ratioP1;P1;durP2;ratioP2;P2;SDS_P1;SDS_P2;PMS_P1;PMS_P2;Temp;Humidity;BMP_temperature;BMP_pressure;BME280_temperature;BME280_humidity;BME280_pressure;Samples;Min_cycle;Max_cycle;Signal;HPM_P1;HPM_P2
2021/12/31 00:00:14;;;;;;;8.38;5.40;;;;;;;7.21;92.01;98603.09;1740487;82;25403;-59
2021/12/31 00:02:41;;;;;;;13.05;8.78;;;;;;;7.22;91.99;98599.25;1730858;82;25754;-59
2021/12/31 00:05:09;;;;;;;11.35;6.70;;;;;;;7.21;91.88;98593.01;1730499;82;25658;-59
2021/12/31 00:07:36;;;;;;;14.20;8.55;;;;;;;7.20;92.04;98597.39;1740773;82;28302;-59
2021/12/31 00:10:04;;;;;;;11.97;8.20;;;;;;;7.19;91.78;98604.74;1731032;82;25412;-59
2021/12/31 00:12:32;;;;;;;12.93;7.90;;;;;;;7.18;91.85;98605.86;1730346;82;25686;-59
2021/12/31 00:14:59;;;;;;;12.68;8.20;;;;;;;7.20;91.77;98601.47;1730774;82;25694;-59
2021/12/31 00:17:25;;;;;;;13.75;8.43;;;;;;;7.22;91.69;98603.34;1730515;82;25726;-59
2021/12/31 00:20:01;;;;;;;11.80;7.30;;;;;;;7.24;91.74;98606.05;1730510;82;27528;-59
2021/12/31 00:24:54;;;;;;;15.13;8.98;;;;;;;7.30;91.59;98608.69;1730754;82;25662;-59
2021/12/31 00:27:20;;;;;;;12.73;8.33;;;;;;;7.26;91.64;98603.03;1740590;82;26062;-59
2021/12/31 00:29:47;;;;;;;12.28;7.33;;;;;;;7.25;91.79;98602.75;1731148;82;25396;-59
2021/12/31 00:32:14;;;;;;;15.28;8.18;;;;;;;7.24;91.78;98611.50;1730626;82;27564;-59
2021/12/31 00:34:40;;;;;;;16.45;11.08;;;;;;;7.25;91.75;98624.02;1730559;82;25581;-59
2021/12/31 00:37:07;;;;;;;9.55;6.42;;;;;;;7.30;91.71;98620.95;1730940;82;25605;-59
2021/12/31 00:39:33;;;;;;;12.37;8.73;;;;;;;7.31;91.73;98623.39;1730940;82;25740;-59
2021/12/31 00:41:59;;;;;;;14.00;8.25;;;;;;;7.32;91.50;98619.58;1731304;82;25644;-58
2021/12/31 00:44:26;;;;;;;15.20;10.15;;;;;;;7.34;91.60;98613.27;1731319;82;27463;-59
2021/12/31 00:46:53;;;;;;;12.75;8.05;;;;;;;7.33;91.47;98618.47;1727978;83;25626;-59
2021/12/31 00:49:19;;;;;;;15.43;8.38;;;;;;;7.29;91.62;98617.44;1727653;83;25447;-59
2021/12/31 00:51:45;;;;;;;18.23;9.10;;;;;;;7.27;91.75;98625.09;1727516;83;25971;-59
2021/12/31 00:54:12;;;;;;;13.72;8.75;;;;;;;7.24;91.62;98627.03;1727888;83;25608;-59
2021/12/31 00:56:38;;;;;;;13.95;8.53;;;;;;;7.24;91.46;98627.03;1727443;83;27491;-59
2021/12/31 00:59:05;;;;;;;16.23;9.25;;;;;;;7.27;91.71;98629.17;1727401;83;25680;-59
2021/12/31 01:01:34;;;;;;;14.38;9.30;;;;;;;7.30;91.56;98631.86;1727869;83;25439;-58
2021/12/31 01:04:00;;;;;;;15.68;9.45;;;;;;;7.31;91.59;98635.66;1727615;83;25428;-58
2021/12/31 01:06:26;;;;;;;13.88;8.53;;;;;;;7.35;91.57;98639.98;1727504;83;25617;-58
2021/12/31 01:08:53;;;;;;;17.37;11.20;;;;;;;7.36;91.49;98636.97;1727999;83;27600;-59
2021/12/31 01:11:19;;;;;;;15.95;9.60;;;;;;;7.34;91.54;98641.89;1740513;82;25606;-58
2021/12/31 01:14:03;;;;;;;11.93;7.83;;;;;;;7.33;91.63;98643.00;1730561;82;25493;-59
2021/12/31 01:16:34;;;;;;;16.32;9.80;;;;;;;7.31;91.70;98644.41;1728075;82;25625;-58
2021/12/31 01:21:20;;;;;;;15.50;10.25;;;;;;;7.31;91.65;98647.13;1731324;82;25653;-59
2021/12/31 01:23:49;;;;;;;16.35;10.35;;;;;;;7.33;91.60;98637.55;1695870;83;25710;-58
2021/12/31 01:26:16;;;;;;;13.60;9.33;;;;;;;7.37;91.52;98639.94;1727311;83;25625;-58
2021/12/31 01:28:43;;;;;;;15.10;10.70;;;;;;;7.39;91.43;98647.29;1727868;83;25788;-58
2021/12/31 01:31:10;;;;;;;16.25;9.85;;;;;;;7.37;91.25;98641.30;1727669;83;25515;-59
2021/12/31 01:33:37;;;;;;;14.75;8.98;;;;;;;7.37;91.64;98639.15;1727467;83;27460;-59
2021/12/31 01:36:05;;;;;;;13.90;8.40;;;;;;;7.34;91.50;98645.98;1727400;83;25455;-58
2021/12/31 01:38:32;;;;;;;17.23;10.18;;;;;;;7.32;91.68;98635.12;1727762;83;25701;-58
2021/12/31 01:40:58;;;;;;;14.38;9.08;;;;;;;7.30;91.58;98650.41;1727757;83;25729;-58
2021/12/31 01:43:24;;;;;;;17.98;10.75;;;;;;;7.24;91.52;98641.48;1727570;83;25647;-58
2021/12/31 01:45:55;;;;;;;17.48;10.40;;;;;;;7.25;91.39;98655.36;1727482;83;27547;-58
2021/12/31 01:48:36;;;;;;;15.98;10.38;;;;;;;7.29;91.62;98646.06;1727765;83;25559;-60
2021/12/31 01:51:01;;;;;;;18.60;12.05;;;;;;;7.34;91.76;98650.06;1740284;82;25652;-60
2021/12/31 01:53:27;;;;;;;17.67;10.50;;;;;;;7.35;91.81;98658.52;1731165;82;25879;-60
2021/12/31 01:56:00;;;;;;;16.70;10.32;;;;;;;7.40;91.94;98659.81;1695994;84;25474;-60
2021/12/31 01:58:28;;;;;;;12.85;8.50;;;;;;;7.42;91.80;98661.45;1727862;83;27469;-60
2021/12/31 02:00:56;;;;;;;11.93;7.30;;;;;;;7.42;92.01;98670.42;1727607;83;25420;-60
2021/12/31 02:03:24;;;;;;;14.20;8.65;;;;;;;7.41;92.05;98667.44;1727510;83;25443;-60
2021/12/31 02:05:50;;;;;;;17.15;9.58;;;;;;;7.37;92.06;98676.75;1727344;83;25785;-60
2021/12/31 02:08:18;;;;;;;17.87;10.23;;;;;;;7.35;92.13;98663.98;1727483;83;25694;-60
2021/12/31 02:10:45;;;;;;;15.75;9.33;;;;;;;7.38;92.10;98667.48;1740678;82;28604;-60
2021/12/31 02:13:14;;;;;;;14.03;8.58;;;;;;;7.42;92.08;98669.63;1703268;82;25656;-60
2021/12/31 02:15:41;;;;;;;14.33;9.25;;;;;;;7.42;92.10;98663.61;1730582;82;25428;-60
2021/12/31 02:18:09;;;;;;;14.43;9.73;;;;;;;7.45;92.03;98663.59;1743756;82;27827;-60
2021/12/31 02:20:45;;;;;;;14.43;9.63;;;;;;;7.47;91.98;98658.09;1730552;82;25465;-60
2021/12/31 02:23:24;;;;;;;12.40;8.60;;;;;;;7.49;91.85;98655.87;1713863;83;26107;-59
2021/12/31 02:25:53;;;;;;;11.45;7.33;;;;;;;7.51;91.80;98656.39;1730399;82;25686;-59
2021/12/31 02:28:20;;;;;;;9.75;6.30;;;;;;;7.51;91.85;98641.94;1730043;82;25612;-59
2021/12/31 02:30:48;;;;;;;12.00;7.70;;;;;;;7.47;91.87;98641.73;1730671;82;25798;-59
2021/12/31 02:33:14;;;;;;;14.73;8.53;;;;;;;7.44;91.98;98637.41;1744135;82;25419;-59
2021/12/31 02:35:42;;;;;;;11.95;8.53;;;;;;;7.42;92.01;98643.73;1730773;82;27529;-59
2021/12/31 02:38:08;;;;;;;12.18;8.15;;;;;;;7.42;92.10;98640.42;1730572;82;25657;-59
2021/12/31 02:40:36;;;;;;;11.97;7.33;;;;;;;7.42;92.00;98637.70;1744061;82;25632;-59
2021/12/31 02:43:04;;;;;;;8.75;5.75;;;;;;;7.45;92.11;98641.20;1730538;82;25744;-59
2021/12/31 02:45:37;;;;;;;13.55;8.40;;;;;;;7.46;92.20;98638.76;1730965;82;25428;-59
2021/12/31 02:48:02;;;;;;;11.48;8.05;;;;;;;7.48;92.01;98639.26;1728938;82;25933;-59
2021/12/31 02:50:34;;;;;;;12.50;7.95;;;;;;;7.50;92.01;98637.60;1713857;83;25485;-59
2021/12/31 02:53:01;;;;;;;11.50;6.72;;;;;;;7.50;91.92;98643.05;1730258;82;25657;-59
2021/12/31 02:55:30;;;;;;;11.95;7.28;;;;;;;7.48;92.12;98641.98;1728624;82;25747;-59
2021/12/31 02:57:59;;;;;;;12.75;8.08;;;;;;;7.45;92.21;98643.14;1731131;82;25403;-59
2021/12/31 03:00:27;;;;;;;12.30;7.85;;;;;;;7.46;92.42;98648.84;1730907;82;28415;-59
2021/12/31 03:02:56;;;;;;;14.80;9.08;;;;;;;7.49;92.40;98650.98;1730862;82;25424;-59
2021/12/31 03:05:23;;;;;;;12.58;8.78;;;;;;;7.49;92.16;98650.41;1731051;82;25725;-59
2021/12/31 03:07:51;;;;;;;13.28;8.65;;;;;;;7.50;92.27;98658.87;1730478;82;25779;-59
2021/12/31 03:10:19;;;;;;;12.15;7.65;;;;;;;7.53;92.39;98650.65;1730814;82;25709;-59
2021/12/31 03:12:49;;;;;;;12.63;9.13;;;;;;;7.53;92.46;98652.84;1699976;83;29589;-59
2021/12/31 03:15:16;;;;;;;12.18;8.23;;;;;;;7.55;92.23;98653.91;1717014;83;25650;-59
2021/12/31 03:17:44;;;;;;;13.40;8.60;;;;;;;7.57;92.15;98662.59;1718817;83;25416;-59
2021/12/31 03:20:25;;;;;;;13.28;8.28;;;;;;;7.59;92.17;98656.84;1718829;83;25769;-59
2021/12/31 03:22:44;;;;;;;12.37;7.75;;;;;;;7.58;92.04;98650.59;1717254;83;25622;-59
2021/12/31 03:25:12;;;;;;;10.80;7.12;;;;;;;7.58;92.20;98647.87;1719023;83;28480;-59
2021/12/31 03:27:38;;;;;;;15.72;9.05;;;;;;;7.55;92.21;98658.00;1718752;83;27116;-59
2021/12/31 03:30:06;;;;;;;14.55;9.28;;;;;;;7.52;92.14;98661.31;1718809;83;25610;-59
2021/12/31 03:32:32;;;;;;;13.68;8.18;;;;;;;7.52;92.16;98651.77;1719213;83;25752;-59
2021/12/31 03:34:59;;;;;;;13.98;8.50;;;;;;;7.53;92.03;98665.11;1718964;83;25460;-59
2021/12/31 03:37:25;;;;;;;12.50;8.23;;;;;;;7.55;92.13;98659.36;1718923;83;27436;-59
2021/12/31 03:39:51;;;;;;;12.73;7.67;;;;;;;7.59;92.10;98666.38;1719200;83;25834;-59
2021/12/31 03:42:18;;;;;;;13.40;8.63;;;;;;;7.59;92.04;98660.39;1718964;83;25665;-58
2021/12/31 03:44:45;;;;;;;12.55;8.93;;;;;;;7.61;91.96;98660.09;1719297;83;25888;-58
2021/12/31 03:47:11;;;;;;;14.25;10.20;;;;;;;7.63;91.86;98667.44;1718872;83;25472;-59
2021/12/31 03:49:37;;;;;;;14.87;10.00;;;;;;;7.63;91.83;98661.98;1719012;83;27667;-59
2021/12/31 03:52:04;;;;;;;11.63;6.58;;;;;;;7.63;91.79;98670.17;1718752;83;25609;-59
2021/12/31 03:54:31;;;;;;;12.15;8.30;;;;;;;7.64;91.96;98664.96;1719145;83;25701;-59
2021/12/31 03:56:57;;;;;;;12.60;7.78;;;;;;;7.59;91.83;98668.56;1718840;83;25830;-59
2021/12/31 03:59:23;;;;;;;13.35;8.78;;;;;;;7.57;91.86;98672.13;1718812;83;25661;-58
2021/12/31 04:01:50;;;;;;;15.50;9.03;;;;;;;7.56;91.90;98674.61;1718843;82;27405;-58
2021/12/31 04:04:16;;;;;;;13.85;9.23;;;;;;;7.56;91.78;98677.88;1719562;83;25730;-59
2021/12/31 04:06:43;;;;;;;12.00;7.78;;;;;;;7.56;91.61;98676.52;1719232;83;25755;-59
2021/12/31 04:09:09;;;;;;;12.03;8.28;;;;;;;7.56;91.69;98671.06;1719326;82;25801;-58
2021/12/31 04:11:35;;;;;;;14.55;8.73;;;;;;;7.58;91.79;98673.77;1719149;82;25408;-58
2021/12/31 04:14:01;;;;;;;13.15;8.60;;;;;;;7.60;91.65;98676.20;1725275;82;27311;-59
2021/12/31 04:16:30;;;;;;;12.90;8.58;;;;;;;7.61;91.67;98666.91;1727414;83;27230;-59
2021/12/31 04:18:56;;;;;;;10.95;7.92;;;;;;;7.62;91.71;98669.34;1727505;83;25669;-58
2021/12/31 04:21:24;;;;;;;11.97;7.75;;;;;;;7.60;91.66;98670.18;1727629;83;25785;-58
2021/12/31 04:24:03;;;;;;;11.60;7.12;;;;;;;7.63;91.74;98666.08;1727740;83;25633;-59
2021/12/31 04:26:19;;;;;;;8.63;5.58;;;;;;;7.59;91.67;98667.20;1724842;83;25962;-59
2021/12/31 04:28:46;;;;;;;12.85;8.10;;;;;;;7.56;91.94;98669.70;1727549;83;26010;-59
2021/12/31 04:31:13;;;;;;;13.53;9.00;;;;;;;7.53;91.87;98669.73;1727761;83;25621;-59
2021/12/31 04:33:39;;;;;;;14.75;9.45;;;;;;;7.53;91.71;98667.83;1727638;83;25776;-59
2021/12/31 04:36:06;;;;;;;14.78;9.55;;;;;;;7.54;91.69;98675.44;1727980;83;25638;-59
2021/12/31 04:38:32;;;;;;;13.32;8.08;;;;;;;7.53;91.60;98676.02;1727820;83;27938;-59
2021/12/31 04:40:58;;;;;;;14.05;9.23;;;;;;;7.55;91.67;98676.27;1727362;83;27131;-59
2021/12/31 04:43:24;;;;;;;16.50;10.05;;;;;;;7.54;91.56;98679.53;1727725;83;25667;-59
2021/12/31 04:45:51;;;;;;;13.03;7.80;;;;;;;7.56;91.57;98678.70;1727482;83;25774;-59
2021/12/31 04:48:17;;;;;;;9.78;5.95;;;;;;;7.58;91.71;98683.86;1727915;83;25468;-59
2021/12/31 04:50:43;;;;;;;18.92;11.90;;;;;;;7.56;91.74;98684.16;1727498;83;27490;-60
2021/12/31 04:53:09;;;;;;;16.93;12.40;;;;;;;7.53;91.68;98676.02;1727421;83;25621;-59
2021/12/31 04:55:35;;;;;;;16.02;10.15;;;;;;;7.50;91.68;98683.42;1740563;82;25421;-59
2021/12/31 04:58:02;;;;;;;17.87;11.55;;;;;;;7.49;91.79;98688.59;1730592;82;27969;-59
2021/12/31 05:00:28;;;;;;;15.48;10.30;;;;;;;7.50;91.65;98686.69;1730938;82;25656;-59
2021/12/31 05:02:54;;;;;;;15.50;9.85;;;;;;;7.51;91.62;98681.48;1730868;82;27396;-59
2021/12/31 05:05:21;;;;;;;19.15;12.90;;;;;;;7.52;91.67;98686.64;1727414;83;27203;-59
2021/12/31 05:07:47;;;;;;;15.78;9.18;;;;;;;7.54;91.50;98686.35;1727578;83;25676;-59
2021/12/31 05:10:15;;;;;;;15.32;10.32;;;;;;;7.53;91.61;98688.28;1727571;83;25781;-59
2021/12/31 05:12:41;;;;;;;13.72;8.08;;;;;;;7.57;91.52;98682.25;1727362;83;25448;-58
2021/12/31 05:15:10;;;;;;;14.23;8.93;;;;;;;7.57;91.59;98682.25;1700305;84;27811;-59
2021/12/31 05:17:37;;;;;;;16.32;10.38;;;;;;;7.56;91.66;98690.97;1700259;84;25745;-59
2021/12/31 05:20:06;;;;;;;13.72;9.03;;;;;;;7.52;91.59;98688.00;1717715;83;25475;-58
2021/12/31 05:22:33;;;;;;;15.28;9.58;;;;;;;7.46;91.63;98687.84;1717605;83;25729;-59
2021/12/31 05:24:59;;;;;;;18.75;10.82;;;;;;;7.45;91.64;98698.47;1717787;83;25624;-59
2021/12/31 05:27:26;;;;;;;16.25;8.93;;;;;;;7.47;91.74;98696.81;1669088;85;27530;-58
2021/12/31 05:29:52;;;;;;;14.30;9.28;;;;;;;7.49;91.84;98695.98;1668943;86;25608;-59
2021/12/31 05:32:18;;;;;;;13.60;8.83;;;;;;;7.50;91.93;98697.05;1669111;86;25485;-59
2021/12/31 05:34:44;;;;;;;15.63;9.18;;;;;;;7.53;91.97;98691.02;1669261;86;25833;-58
2021/12/31 05:37:12;;;;;;;15.78;9.78;;;;;;;7.55;91.95;98693.45;1669013;86;25774;-58
2021/12/31 05:39:38;;;;;;;15.00;9.80;;;;;;;7.57;91.86;98691.22;1669211;86;27413;-58
2021/12/31 05:42:05;;;;;;;14.87;9.03;;;;;;;7.59;91.85;98695.02;1668981;86;25417;-58
2021/12/31 05:44:31;;;;;;;15.45;9.98;;;;;;;7.61;91.89;98699.64;1669391;85;25510;-58
2021/12/31 05:46:58;;;;;;;14.25;9.08;;;;;;;7.59;91.83;98695.84;1668946;86;25779;-59
2021/12/31 05:49:24;;;;;;;16.77;10.30;;;;;;;7.56;91.72;98694.23;1668949;86;25626;-58
2021/12/31 05:51:50;;;;;;;19.30;10.98;;;;;;;7.53;91.92;98698.37;1700079;84;27375;-58
2021/12/31 05:54:17;;;;;;;19.02;11.57;;;;;;;7.52;91.97;98696.76;1700150;84;26053;-58
2021/12/31 05:56:43;;;;;;;18.15;11.50;;;;;;;7.52;91.80;98691.30;1700229;84;25675;-58
2021/12/31 05:59:09;;;;;;;21.27;13.93;;;;;;;7.55;91.98;98692.63;1717476;83;25729;-58
2021/12/31 06:01:35;;;;;;;21.85;13.25;;;;;;;7.57;91.83;98703.49;1700944;84;25469;-58
2021/12/31 06:04:01;;;;;;;21.52;12.37;;;;;;;7.59;91.70;98699.93;1700802;83;27470;-59
2021/12/31 06:06:28;;;;;;;25.15;14.50;;;;;;;7.59;91.80;98694.48;1700853;84;26070;-58
2021/12/31 06:08:54;;;;;;;22.22;12.58;;;;;;;7.62;91.71;98693.07;1700118;84;25606;-58
2021/12/31 06:11:21;;;;;;;19.87;10.58;;;;;;;7.61;91.76;98695.01;1700071;84;25777;-58
2021/12/31 06:13:55;;;;;;;21.62;12.23;;;;;;;7.62;91.88;98699.89;1714089;82;25765;-59
2021/12/31 06:16:16;;;;;;;21.75;11.18;;;;;;;7.63;91.78;98702.90;1739565;82;26788;-59
2021/12/31 06:18:42;;;;;;;16.12;10.35;;;;;;;7.63;91.76;98708.35;1741003;82;25909;-59
2021/12/31 06:21:09;;;;;;;16.73;9.70;;;;;;;7.62;91.92;98706.17;1740937;82;25660;-59
2021/12/31 06:23:35;;;;;;;17.52;10.75;;;;;;;7.61;92.08;98711.91;1730514;82;25765;-59
2021/12/31 06:26:01;;;;;;;17.95;11.65;;;;;;;7.59;92.02;98706.75;1731257;82;25439;-59
2021/12/31 06:28:27;;;;;;;16.70;10.20;;;;;;;7.60;91.96;98715.18;1730754;82;27480;-59
2021/12/31 06:30:54;;;;;;;16.52;10.30;;;;;;;7.64;92.12;98718.15;1727276;83;25898;-59
2021/12/31 06:33:20;;;;;;;13.62;8.75;;;;;;;7.68;92.03;98726.56;1727797;83;25663;-58
2021/12/31 06:35:46;;;;;;;13.72;8.85;;;;;;;7.69;92.00;98713.17;1727427;83;27762;-58
2021/12/31 06:38:12;;;;;;;14.43;8.70;;;;;;;7.72;92.10;98720.78;1728065;83;25682;-59
2021/12/31 06:40:39;;;;;;;11.10;7.17;;;;;;;7.71;91.92;98718.59;1727397;83;27465;-58
2021/12/31 06:43:06;;;;;;;16.20;10.78;;;;;;;7.71;92.21;98725.41;1727500;83;25557;-59
2021/12/31 06:45:33;;;;;;;17.27;9.75;;;;;;;7.70;92.19;98718.34;1727652;83;25690;-59
2021/12/31 06:47:59;;;;;;;17.55;9.90;;;;;;;7.69;92.29;98729.00;1727350;83;25793;-58
2021/12/31 06:50:26;;;;;;;15.30;9.13;;;;;;;7.73;92.25;98721.03;1727891;83;25406;-59
2021/12/31 06:52:52;;;;;;;14.40;7.85;;;;;;;7.75;92.42;98723.71;1727402;83;27395;-59
2021/12/31 06:55:19;;;;;;;15.78;9.88;;;;;;;7.77;92.42;98717.42;1727338;83;25653;-59
2021/12/31 06:57:47;;;;;;;17.05;10.65;;;;;;;7.81;92.16;98724.48;1727726;83;25447;-58
2021/12/31 07:00:14;;;;;;;16.67;9.30;;;;;;;7.84;91.99;98724.44;1727590;83;25981;-59
2021/12/31 07:02:40;;;;;;;14.38;8.78;;;;;;;7.87;91.99;98723.30;1727710;83;25764;-59
2021/12/31 07:05:08;;;;;;;14.68;9.60;;;;;;;7.89;92.02;98724.38;1727412;83;27456;-59
2021/12/31 07:07:34;;;;;;;12.95;8.33;;;;;;;7.90;91.92;98729.54;1727784;83;25567;-59
2021/12/31 07:10:00;;;;;;;15.08;10.05;;;;;;;7.89;92.00;98738.02;1727555;83;25605;-59
2021/12/31 07:12:27;;;;;;;16.75;9.98;;;;;;;7.85;92.12;98730.96;1727385;83;25609;-59
2021/12/31 07:14:53;;;;;;;10.55;6.10;;;;;;;7.90;92.10;98733.63;1727381;83;25611;-59
2021/12/31 07:17:20;;;;;;;12.88;8.28;;;;;;;7.93;92.16;98728.13;1727655;83;27542;-59
2021/12/31 07:19:46;;;;;;;13.15;7.85;;;;;;;7.98;92.02;98738.16;1727309;83;25456;-59
2021/12/31 07:22:12;;;;;;;11.40;7.62;;;;;;;8.01;91.95;98730.18;1727369;83;25767;-59
2021/12/31 07:24:38;;;;;;;11.08;6.97;;;;;;;8.08;91.86;98734.46;1727498;83;25771;-59
2021/12/31 07:27:05;;;;;;;11.15;7.65;;;;;;;8.10;91.81;98739.08;1727962;83;25634;-59
2021/12/31 07:29:31;;;;;;;10.80;6.67;;;;;;;8.13;91.59;98733.03;1727782;83;27535;-60
2021/12/31 07:31:57;;;;;;;6.05;3.65;;;;;;;8.14;91.81;98731.38;1727388;83;27179;-59
2021/12/31 07:34:24;;;;;;;16.23;8.63;;;;;;;8.10;92.00;98733.08;1727385;83;25630;-59
2021/12/31 07:36:50;;;;;;;12.98;7.67;;;;;;;8.14;91.96;98738.74;1727404;83;25857;-59
2021/12/31 07:39:20;;;;;;;15.43;9.20;;;;;;;8.16;91.71;98743.36;1727485;83;25681;-59
2021/12/31 07:41:44;;;;;;;14.83;7.10;;;;;;;8.20;91.75;98740.86;1727079;83;26833;-59
2021/12/31 07:44:10;;;;;;;13.58;8.53;;;;;;;8.22;91.68;98749.01;1727521;83;25810;-60
2021/12/31 07:46:37;;;;;;;12.53;6.58;;;;;;;8.26;91.53;98751.40;1727681;83;25688;-59
2021/12/31 07:49:03;;;;;;;21.30;12.73;;;;;;;8.28;91.40;98741.55;1727517;83;25787;-59
2021/12/31 07:51:30;;;;;;;12.80;7.78;;;;;;;8.29;91.42;98749.98;1727721;83;25453;-59
2021/12/31 07:53:56;;;;;;;16.05;9.33;;;;;;;8.34;91.54;98753.19;1727691;83;28331;-59
2021/12/31 07:56:22;;;;;;;11.33;6.75;;;;;;;8.33;91.50;98742.02;1727404;83;25683;-59
2021/12/31 07:58:49;;;;;;;10.63;6.20;;;;;;;8.33;91.71;98743.39;1727934;83;25654;-59
2021/12/31 08:01:16;;;;;;;12.35;7.62;;;;;;;8.34;91.76;98753.19;1727737;83;26190;-59
2021/12/31 08:03:43;;;;;;;8.40;5.15;;;;;;;8.35;91.64;98747.44;1727915;83;25393;-59
2021/12/31 08:06:09;;;;;;;14.87;8.75;;;;;;;8.38;91.61;98750.15;1727537;83;27459;-59
2021/12/31 08:08:35;;;;;;;16.85;8.88;;;;;;;8.41;91.40;98751.71;1727459;83;27205;-59
2021/12/31 08:11:02;;;;;;;14.43;8.78;;;;;;;8.44;91.55;98747.59;1727629;83;25447;-59
2021/12/31 08:13:28;;;;;;;14.18;8.28;;;;;;;8.49;91.36;98754.90;1727468;83;26643;-60
2021/12/31 08:15:55;;;;;;;13.22;7.72;;;;;;;8.52;91.29;98756.46;1718011;83;25765;-60
2021/12/31 08:18:21;;;;;;;15.20;8.83;;;;;;;8.54;91.18;98768.48;1700187;84;27498;-59
2021/12/31 08:20:49;;;;;;;14.45;9.05;;;;;;;8.56;91.15;98766.28;1700094;84;25874;-59
2021/12/31 08:23:16;;;;;;;12.80;8.38;;;;;;;8.60;91.18;98763.20;1717364;83;25654;-59
2021/12/31 08:25:43;;;;;;;14.07;9.45;;;;;;;8.65;91.17;98759.03;1717551;83;25943;-60
2021/12/31 08:28:10;;;;;;;12.78;7.70;;;;;;;8.72;91.13;98760.58;1717710;83;25452;-60
2021/12/31 08:30:38;;;;;;;12.23;6.17;;;;;;;8.77;90.96;98761.29;1717750;83;27379;-60
2021/12/31 08:33:05;;;;;;;15.13;8.10;;;;;;;8.82;90.74;98760.94;1717569;83;25432;-60
2021/12/31 08:35:32;;;;;;;14.45;7.58;;;;;;;8.85;90.61;98760.34;1717476;83;25520;-59
2021/12/31 08:37:59;;;;;;;10.78;5.92;;;;;;;8.87;90.50;98763.02;1717630;83;25720;-60
2021/12/31 08:40:26;;;;;;;16.35;10.13;;;;;;;8.89;90.37;98764.91;1717505;83;25689;-60
2021/12/31 08:42:54;;;;;;;20.30;7.65;;;;;;;8.92;90.42;98767.59;1669281;85;27389;-59
2021/12/31 08:45:21;;;;;;;16.50;7.95;;;;;;;8.94;90.34;98764.55;1668979;86;26018;-59
2021/12/31 08:47:48;;;;;;;11.83;6.85;;;;;;;8.94;90.40;98770.84;1669042;86;25630;-60
2021/12/31 08:50:15;;;;;;;12.82;7.15;;;;;;;8.95;90.40;98768.36;1669163;86;25906;-60
2021/12/31 08:52:42;;;;;;;15.98;8.68;;;;;;;8.97;90.29;98772.98;1669072;86;25492;-60
2021/12/31 08:55:11;;;;;;;21.33;14.25;;;;;;;9.04;90.35;98776.70;1700392;84;27476;-60
2021/12/31 08:57:38;;;;;;;15.80;9.23;;;;;;;9.09;90.16;98777.96;1717283;83;25657;-60
2021/12/31 09:00:08;;;;;;;23.95;12.58;;;;;;;9.14;90.03;98777.06;1717788;82;25376;-60
2021/12/31 09:02:35;;;;;;;19.92;12.60;;;;;;;9.20;89.97;98774.48;1669330;85;25697;-60
2021/12/31 09:05:03;;;;;;;30.40;15.68;;;;;;;9.26;89.79;98779.30;1700258;84;25462;-60
2021/12/31 09:07:30;;;;;;;20.57;10.23;;;;;;;9.30;89.57;98781.70;1700399;84;27447;-60
2021/12/31 09:09:56;;;;;;;18.98;9.70;;;;;;;9.28;89.31;98779.27;1717445;83;25551;-60
2021/12/31 09:12:23;;;;;;;17.37;10.90;;;;;;;9.29;89.30;98775.96;1717613;83;25415;-60
2021/12/31 09:14:50;;;;;;;17.00;10.15;;;;;;;9.34;89.34;98777.24;1711735;82;25898;-60
2021/12/31 09:17:17;;;;;;;22.27;12.43;;;;;;;9.39;89.20;98784.55;1730104;82;25644;-61
2021/12/31 09:19:44;;;;;;;26.17;17.67;;;;;;;9.43;89.10;98781.99;1729896;83;27407;-61
2021/12/31 09:22:11;;;;;;;47.03;32.65;;;;;;;9.48;89.04;98791.48;1729997;83;25628;-60
2021/12/31 09:24:37;;;;;;;23.75;16.50;;;;;;;9.53;89.13;98790.03;1727514;83;25679;-61
2021/12/31 09:27:04;;;;;;;32.67;21.02;;;;;;;9.57;88.98;98795.14;1727865;83;25708;-60
2021/12/31 09:29:31;;;;;;;13.48;7.72;;;;;;;9.57;88.89;98795.14;1727783;82;25641;-60
2021/12/31 09:31:58;;;;;;;23.38;15.38;;;;;;;9.59;88.73;98794.83;1727510;83;27369;-61
2021/12/31 09:34:25;;;;;;;38.98;30.85;;;;;;;9.64;88.90;98793.34;1727471;83;25404;-60
2021/12/31 09:36:52;;;;;;;425.70;206.87;;;;;;;9.70;88.80;98790.77;1727700;83;25400;-60
2021/12/31 09:39:18;;;;;;;519.52;259.00;;;;;;;9.77;88.58;98787.09;1727596;83;25582;-60
2021/12/31 09:41:45;;;;;;;504.35;243.88;;;;;;;9.81;88.33;98783.16;1727703;83;25617;-60
2021/12/31 09:44:15;;;;;;;115.42;37.10;;;;;;;9.89;88.45;98780.27;1727715;83;27406;-60
2021/12/31 09:46:42;;;;;;;143.13;45.43;;;;;;;9.90;88.10;98778.59;1683819;83;26411;-60
2021/12/31 09:49:09;;;;;;;76.92;27.90;;;;;;;9.96;88.10;98775.75;1693842;83;25704;-60
2021/12/31 09:51:40;;;;;;;85.17;32.05;;;;;;;10.02;87.79;98777.27;1699422;83;26300;-60
2021/12/31 09:54:07;;;;;;;47.53;20.00;;;;;;;10.11;87.74;98779.53;1693940;83;25838;-60
2021/12/31 09:56:39;;;;;;;36.68;17.80;;;;;;;10.20;87.53;98788.38;1690615;83;27448;-60
2021/12/31 09:59:02;;;;;;;22.37;11.65;;;;;;;10.24;87.19;98789.37;1700288;83;25765;-60
2021/12/31 10:01:28;;;;;;;32.93;19.05;;;;;;;10.25;87.05;98784.95;1700975;83;26373;-60
2021/12/31 10:04:02;;;;;;;14.25;7.90;;;;;;;10.24;87.18;98791.56;1695872;84;26457;-60
2021/12/31 10:06:28;;;;;;;50.55;19.52;;;;;;;10.21;86.95;98785.88;1696090;84;25722;-60
2021/12/31 10:08:58;;;;;;;41.50;16.75;;;;;;;10.21;87.20;98789.44;1695169;84;27595;-60
2021/12/31 10:11:25;;;;;;;62.08;21.87;;;;;;;10.23;87.12;98783.66;1669216;84;25851;-60
2021/12/31 10:13:58;;;;;;;47.62;17.67;;;;;;;10.30;87.22;98786.77;1695596;84;25716;-60
2021/12/31 10:16:43;;;;;;;41.83;16.35;;;;;;;10.34;86.89;98780.13;1658837;84;26620;-60
2021/12/31 10:19:19;;;;;;;40.17;15.13;;;;;;;10.44;87.08;98785.91;1653920;86;25752;-60
2021/12/31 10:21:51;;;;;;;31.02;12.28;;;;;;;10.54;87.04;98777.50;1656284;86;27491;-60
2021/12/31 10:24:38;;;;;;;65.37;29.72;;;;;;;10.80;86.67;98771.41;1656173;86;25723;-59
2021/12/31 10:27:20;;;;;;;28.52;12.60;;;;;;;11.13;85.86;98768.36;1655923;86;25788;-59
2021/12/31 10:30:06;;;;;;;29.07;12.53;;;;;;;11.45;85.28;98753.23;1654732;86;25675;-60
2021/12/31 10:32:40;;;;;;;33.75;13.70;;;;;;;11.82;83.96;98759.89;1672366;85;25718;-60
2021/12/31 10:35:14;;;;;;;24.27;12.75;;;;;;;12.12;83.10;98758.75;1668948;85;25782;-60
2021/12/31 10:37:46;;;;;;;41.13;16.17;;;;;;;12.25;82.65;98748.75;1701082;84;25840;-60
2021/12/31 10:40:31;;;;;;;32.23;14.33;;;;;;;12.19;81.73;98756.91;1670346;85;25460;-60
2021/12/31 10:43:18;;;;;;;28.27;11.63;;;;;;;12.08;81.85;98766.58;1670080;85;25763;-60
2021/12/31 10:46:07;;;;;;;33.80;14.15;;;;;;;11.98;81.86;98767.68;1669965;85;25595;-60
2021/12/31 10:48:51;;;;;;;26.93;11.55;;;;;;;11.86;82.19;98759.48;1668032;85;28432;-60
2021/12/31 10:51:41;;;;;;;32.15;14.25;;;;;;;11.75;82.50;98757.59;1668199;85;25482;-60
2021/12/31 10:54:45;;;;;;;33.73;17.27;;;;;;;11.69;82.62;98760.83;1669039;86;25668;-61
2021/12/31 10:57:01;;;;;;;33.10;17.50;;;;;;;11.58;82.89;98754.27;1666152;86;25737;-60
2021/12/31 10:59:33;;;;;;;37.05;17.57;;;;;;;11.49;83.03;98752.84;1668639;86;25663;-60
2021/12/31 11:01:56;;;;;;;40.58;18.87;;;;;;;11.41;82.95;98746.22;1669002;85;26948;-60
2021/12/31 11:04:23;;;;;;;29.37;13.93;;;;;;;11.39;83.20;98750.39;1669840;85;25767;-60
2021/12/31 11:06:50;;;;;;;26.15;12.50;;;;;;;11.32;83.02;98749.49;1668490;85;25510;-60
2021/12/31 11:09:19;;;;;;;26.65;13.35;;;;;;;11.31;83.22;98748.44;1668729;86;27254;-60
2021/12/31 11:11:48;;;;;;;22.37;9.38;;;;;;;11.25;82.86;98756.80;1668065;86;25692;-60
2021/12/31 11:14:16;;;;;;;35.83;16.30;;;;;;;11.18;82.73;98738.62;1668636;86;27498;-60
2021/12/31 11:16:43;;;;;;;16.75;8.15;;;;;;;11.14;83.15;98741.17;1688628;84;25488;-60
2021/12/31 11:19:11;;;;;;;28.55;13.88;;;;;;;11.06;83.04;98740.58;1691471;84;25422;-60
2021/12/31 11:21:38;;;;;;;36.48;17.55;;;;;;;11.01;83.31;98735.22;1691565;84;25713;-60
2021/12/31 11:24:32;;;;;;;30.17;14.78;;;;;;;10.98;83.48;98731.19;1691589;84;25636;-60
2021/12/31 11:27:00;;;;;;;25.88;13.18;;;;;;;10.97;83.49;98735.03;1691358;84;27429;-60
2021/12/31 11:29:37;;;;;;;34.85;14.43;;;;;;;10.95;83.60;98730.44;1691051;84;25483;-60
2021/12/31 11:32:06;;;;;;;26.45;12.88;;;;;;;10.98;83.60;98735.84;1691315;84;25498;-60
2021/12/31 11:34:32;;;;;;;23.52;12.20;;;;;;;10.98;83.59;98730.36;1691643;84;25761;-60
2021/12/31 11:36:58;;;;;;;34.03;15.53;;;;;;;10.95;83.66;98725.52;1691694;84;25775;-61